createdAt,value
2023-01-09T00:01:37.767Z,98992.50
2023-01-09T00:04:06.017Z,98992.03
2023-01-09T00:06:33.883Z,98985.22
2023-01-09T00:09:01.957Z,98984.84
2023-01-09T00:11:29.922Z,98983.09
2023-01-09T00:13:59.077Z,98979.56
2023-01-09T00:16:26.824Z,98964.16
2023-01-09T00:18:54.827Z,98968.72
2023-01-09T00:21:22.447Z,98967.19
2023-01-09T00:23:50.017Z,98956.31
2023-01-09T00:26:19.079Z,98958.50
2023-01-09T00:28:47.847Z,98956.59
2023-01-09T00:31:17.671Z,98954.47
2023-01-09T00:33:49.418Z,98953.88
2023-01-09T00:36:16.967Z,98946.25
2023-01-09T00:38:44.616Z,98940.75
2023-01-09T00:41:15.543Z,98928.91
2023-01-09T00:43:46.034Z,98929.13
2023-01-09T00:46:14.977Z,98938.66
2023-01-09T00:48:46.245Z,98936.19
2023-01-09T00:51:14.000Z,98931.28
2023-01-09T00:53:43.818Z,98926.09
2023-01-09T00:56:16.084Z,98928.00
2023-01-09T00:58:44.179Z,98924.00
2023-01-09T01:01:12.276Z,98926.34
2023-01-09T01:03:40.493Z,98928.13
2023-01-09T01:06:26.946Z,98920.72
2023-01-09T01:08:55.706Z,98920.94
2023-01-09T01:11:23.911Z,98923.03
2023-01-09T01:13:52.117Z,98926.31
2023-01-09T01:16:19.873Z,98927.81
2023-01-09T01:18:47.515Z,98918.44
2023-01-09T01:21:16.410Z,98922.56
2023-01-09T01:23:44.847Z,98914.47
2023-01-09T01:26:15.742Z,98914.31
2023-01-09T01:28:44.925Z,98920.31
2023-01-09T01:31:18.241Z,98914.78
2023-01-09T01:33:46.024Z,98918.53
2023-01-09T01:36:16.152Z,98915.94
2023-01-09T01:38:46.729Z,98916.75
2023-01-09T01:41:14.463Z,98910.88
2023-01-09T01:43:52.773Z,98912.63
2023-01-09T01:46:20.552Z,98916.16
2023-01-09T01:48:51.409Z,98903.59
2023-01-09T01:51:20.615Z,98913.41
2023-01-09T01:53:54.042Z,98906.16
2023-01-09T01:56:28.465Z,98914.25
2023-01-09T01:59:00.101Z,98906.63
2023-01-09T02:01:30.327Z,98902.97
2023-01-09T02:04:00.168Z,98907.63
2023-01-09T02:06:28.636Z,98904.31
2023-01-09T02:08:58.216Z,98894.13
2023-01-09T02:11:25.911Z,98898.78
2023-01-09T02:13:53.879Z,98895.63
2023-01-09T02:16:39.647Z,98891.19
2023-01-09T02:19:20.512Z,98888.72
2023-01-09T02:22:00.193Z,98881.69
2023-01-09T02:24:46.648Z,98887.31
2023-01-09T02:27:24.321Z,98886.25
2023-01-09T02:30:21.416Z,98892.00
2023-01-09T02:33:00.551Z,98882.50
2023-01-09T02:35:41.781Z,98877.47
2023-01-09T02:38:19.021Z,98879.50
2023-01-09T02:40:53.997Z,98881.59
2023-01-09T02:43:22.136Z,98876.41
2023-01-09T02:45:51.101Z,98880.03
2023-01-09T02:48:18.759Z,98871.94
2023-01-09T02:50:52.029Z,98866.44
2023-01-09T02:53:53.445Z,98860.09
2023-01-09T02:56:34.299Z,98859.25
2023-01-09T02:59:24.737Z,98864.69
2023-01-09T03:02:09.128Z,98856.09
2023-01-09T03:04:45.033Z,98854.53
2023-01-09T03:07:21.231Z,98849.97
2023-01-09T03:09:52.520Z,98851.59
2023-01-09T03:12:23.140Z,98843.66
2023-01-09T03:14:54.262Z,98850.19
2023-01-09T03:17:28.664Z,98838.97
2023-01-09T03:19:57.909Z,98836.69
2023-01-09T03:22:25.708Z,98843.75
2023-01-09T03:24:53.444Z,98835.28
2023-01-09T03:27:21.501Z,98847.28
2023-01-09T03:29:49.075Z,98842.94
2023-01-09T03:32:16.605Z,98846.06
2023-01-09T03:34:45.595Z,98840.09
2023-01-09T03:37:13.186Z,98840.56
2023-01-09T03:39:40.716Z,98830.97
2023-01-09T03:42:08.298Z,98836.25
2023-01-09T03:44:35.869Z,98836.69
2023-01-09T03:47:03.427Z,98840.38
2023-01-09T03:49:30.991Z,98839.91
2023-01-09T03:51:59.853Z,98835.22
2023-01-09T03:54:27.433Z,98831.47
2023-01-09T03:56:54.985Z,98838.53
2023-01-09T03:59:22.640Z,98842.50
2023-01-09T04:01:50.333Z,98834.28
2023-01-09T04:04:18.177Z,98835.31
2023-01-09T04:06:45.789Z,98828.63
2023-01-09T04:09:14.669Z,98830.06
2023-01-09T04:11:42.267Z,98834.03
2023-01-09T04:14:09.833Z,98828.63
2023-01-09T04:16:37.480Z,98830.66
2023-01-09T04:19:05.031Z,98829.38
2023-01-09T04:21:32.719Z,98826.56
2023-01-09T04:24:00.456Z,98837.50
2023-01-09T04:26:29.432Z,98835.84
2023-01-09T04:28:57.243Z,98834.91
2023-01-09T04:31:24.894Z,98841.72
2023-01-09T04:33:52.512Z,98848.13
2023-01-09T04:36:20.182Z,98846.34
2023-01-09T04:38:47.681Z,98838.00
2023-01-09T04:41:35.867Z,98840.00
2023-01-09T04:44:04.860Z,98838.72
2023-01-09T04:46:32.460Z,98837.81
2023-01-09T04:49:00.109Z,98834.41
2023-01-09T04:51:27.650Z,98840.16
2023-01-09T04:53:55.160Z,98844.03
2023-01-09T04:56:22.876Z,98844.19
2023-01-09T04:58:50.384Z,98842.06
2023-01-09T05:01:19.350Z,98842.53
2023-01-09T05:03:47.037Z,98850.03
2023-01-09T05:06:14.711Z,98851.66
2023-01-09T05:08:42.348Z,98861.03
2023-01-09T05:11:09.984Z,98870.41
2023-01-09T05:13:37.616Z,98869.72
2023-01-09T05:16:06.618Z,98863.84
2023-01-09T05:18:35.679Z,98871.34
2023-01-09T05:21:03.334Z,98866.88
2023-01-09T05:23:30.897Z,98869.09
2023-01-09T05:25:58.532Z,98873.44
2023-01-09T05:28:26.097Z,98877.34
2023-01-09T05:30:53.702Z,98884.09
2023-01-09T05:33:21.428Z,98878.56
2023-01-09T05:35:50.391Z,98887.28
2023-01-09T05:38:18.066Z,98889.16
2023-01-09T05:40:45.599Z,98886.94
2023-01-09T05:43:13.769Z,98893.63
2023-01-09T05:45:41.321Z,98903.31
2023-01-09T05:48:08.962Z,98908.00
2023-01-09T05:50:36.627Z,98911.16
2023-01-09T05:53:06.545Z,98913.06
2023-01-09T05:55:34.172Z,98919.03
2023-01-09T05:58:01.778Z,98920.00
2023-01-09T06:00:29.373Z,98917.88
2023-01-09T06:02:57.035Z,98914.44
2023-01-09T06:05:24.688Z,98916.78
2023-01-09T06:07:52.275Z,98919.16
2023-01-09T06:10:21.218Z,98922.56
2023-01-09T06:12:50.520Z,98923.47
2023-01-09T06:15:21.134Z,98926.50
2023-01-09T06:17:48.732Z,98925.22
2023-01-09T06:20:16.528Z,98927.91
2023-01-09T06:22:45.230Z,98922.38
2023-01-09T06:25:13.322Z,98933.97
2023-01-09T06:27:42.176Z,98937.38
2023-01-09T06:30:10.915Z,98937.47
2023-01-09T06:32:38.700Z,98940.75
2023-01-09T06:35:06.911Z,98953.84
2023-01-09T06:37:34.476Z,98958.28
2023-01-09T06:40:02.171Z,98965.50
2023-01-09T06:42:30.226Z,98981.06
2023-01-09T06:44:59.156Z,98976.78
2023-01-09T06:47:26.773Z,98977.16
2023-01-09T06:49:54.338Z,98978.81
2023-01-09T06:52:21.993Z,98985.56
2023-01-09T06:54:49.536Z,98988.03
2023-01-09T06:57:17.111Z,98992.16
2023-01-09T06:59:44.648Z,98994.19
2023-01-09T07:02:19.446Z,98997.84
2023-01-09T07:04:47.254Z,99002.69
2023-01-09T07:07:15.384Z,99003.47
2023-01-09T07:09:42.937Z,98998.97
2023-01-09T07:12:11.140Z,99012.69
2023-01-09T07:14:38.667Z,99018.91
2023-01-09T07:17:06.293Z,99023.22
2023-01-09T07:19:35.160Z,99029.06
2023-01-09T07:22:02.730Z,99024.41
2023-01-09T07:24:30.274Z,99023.38
2023-01-09T07:26:57.821Z,99026.81
2023-01-09T07:29:25.380Z,99035.44
2023-01-09T07:31:52.929Z,99033.94
2023-01-09T07:34:20.621Z,99050.19
2023-01-09T07:36:51.056Z,99052.53
2023-01-09T07:39:18.729Z,99060.84
2023-01-09T07:41:46.522Z,99057.03
2023-01-09T07:44:14.688Z,99064.56
2023-01-09T07:46:42.408Z,99066.44
2023-01-09T07:49:10.117Z,99069.19
2023-01-09T07:51:39.081Z,99072.66
2023-01-09T07:54:08.015Z,99075.06
2023-01-09T07:56:35.590Z,99071.72
2023-01-09T07:59:03.165Z,99081.88
2023-01-09T08:01:30.920Z,99079.88
2023-01-09T08:03:58.701Z,99084.38
2023-01-09T08:06:26.333Z,99078.09
2023-01-09T08:08:53.917Z,99084.91
2023-01-09T08:11:22.780Z,99090.91
2023-01-09T08:13:50.708Z,99081.56
2023-01-09T08:16:18.478Z,99093.94
2023-01-09T08:18:46.076Z,99100.25
2023-01-09T08:21:14.270Z,99114.03
2023-01-09T08:23:41.862Z,99116.28
2023-01-09T08:26:09.875Z,99118.19
2023-01-09T08:28:38.810Z,99120.63
2023-01-09T08:31:06.611Z,99129.34
2023-01-09T08:33:34.282Z,99131.81
2023-01-09T08:36:01.897Z,99126.78
2023-01-09T08:38:29.566Z,99129.47
2023-01-09T08:40:57.126Z,99133.13
2023-01-09T08:43:42.619Z,99136.06
2023-01-09T08:46:37.929Z,99116.31
2023-01-09T08:49:05.553Z,99130.09
2023-01-09T08:51:33.187Z,99133.44
2023-01-09T08:54:00.729Z,99130.50
2023-01-09T08:56:28.299Z,99129.00
2023-01-09T08:58:55.865Z,99129.97
2023-01-09T09:01:24.755Z,99131.66
2023-01-09T09:03:52.368Z,99133.03
2023-01-09T09:06:19.966Z,99129.53
2023-01-09T09:08:47.574Z,99124.69
2023-01-09T09:11:15.096Z,99119.81
2023-01-09T09:13:42.646Z,99120.44
2023-01-09T09:16:10.256Z,99123.84
2023-01-09T09:18:39.255Z,99122.00
2023-01-09T09:21:06.921Z,99126.78
2023-01-09T09:23:34.491Z,99137.19
2023-01-09T09:26:02.077Z,99129.13
2023-01-09T09:28:29.673Z,99141.31
2023-01-09T09:30:57.299Z,99137.19
2023-01-09T09:33:25.051Z,99128.38
2023-01-09T09:35:53.930Z,99138.41
2023-01-09T09:38:21.475Z,99135.94
2023-01-09T09:41:04.267Z,99132.66
2023-01-09T09:44:19.308Z,99130.53
2023-01-09T09:46:56.263Z,99130.66
2023-01-09T09:49:28.759Z,99140.63
2023-01-09T09:52:10.541Z,99143.94
2023-01-09T09:54:42.285Z,99151.38
2023-01-09T09:57:16.162Z,99151.81
2023-01-09T09:59:44.245Z,99150.91
2023-01-09T10:02:25.900Z,99157.50
2023-01-09T10:05:00.074Z,99162.69
2023-01-09T10:07:34.044Z,99162.31
2023-01-09T10:10:05.050Z,99163.47
2023-01-09T10:12:36.614Z,99167.47
2023-01-09T10:15:15.255Z,99162.25
2023-01-09T10:17:55.268Z,99164.97
2023-01-09T10:20:48.926Z,99163.47
2023-01-09T10:23:33.553Z,99151.88
2023-01-09T10:26:07.540Z,99142.50
2023-01-09T10:28:56.112Z,99139.22
2023-01-09T10:31:33.271Z,99137.56
2023-01-09T10:34:14.880Z,99135.25
2023-01-09T10:37:00.920Z,99138.16
2023-01-09T10:39:36.525Z,99135.84
2023-01-09T10:42:11.194Z,99123.63
2023-01-09T10:44:48.158Z,99125.22
2023-01-09T10:47:18.662Z,99128.25
2023-01-09T10:49:48.727Z,99128.09
2023-01-09T10:52:18.246Z,99133.47
2023-01-09T10:54:56.110Z,99122.88
2023-01-09T10:57:42.021Z,99131.25
2023-01-09T11:00:17.877Z,99131.81
2023-01-09T11:02:46.083Z,99127.91
2023-01-09T11:05:18.218Z,99131.19
2023-01-09T11:07:49.666Z,99140.25
2023-01-09T11:10:19.190Z,99134.03
2023-01-09T11:12:47.508Z,99136.50
2023-01-09T11:15:28.968Z,99131.81
2023-01-09T11:18:14.832Z,99136.13
2023-01-09T11:20:42.412Z,99142.59
2023-01-09T11:23:25.645Z,99143.34
2023-01-09T11:25:56.772Z,99129.34
2023-01-09T11:28:24.504Z,99122.09
2023-01-09T11:30:55.417Z,99134.47
2023-01-09T11:33:25.607Z,99132.72
2023-01-09T11:36:00.476Z,99136.94
2023-01-09T11:38:28.941Z,99135.88
2023-01-09T11:41:01.336Z,99137.25
2023-01-09T11:43:34.044Z,99139.88
2023-01-09T11:46:04.339Z,99132.13
2023-01-09T11:48:35.486Z,99146.63
2023-01-09T11:51:06.053Z,99144.06
2023-01-09T11:53:59.023Z,99145.03
2023-01-09T11:56:28.056Z,99151.63
2023-01-09T11:58:55.689Z,99153.50
2023-01-09T12:01:46.717Z,99156.13
2023-01-09T12:04:30.055Z,99150.28
2023-01-09T12:07:20.531Z,99153.44
2023-01-09T12:10:01.945Z,99147.97
2023-01-09T12:12:36.164Z,99151.47
2023-01-09T12:15:17.172Z,99139.09
2023-01-09T12:17:59.879Z,99145.09
2023-01-09T12:20:42.235Z,99145.03
2023-01-09T12:23:26.758Z,99132.72
2023-01-09T12:26:06.499Z,99137.06
2023-01-09T12:28:48.887Z,99131.44
2023-01-09T12:31:28.388Z,99134.53
2023-01-09T12:34:09.273Z,99137.88
2023-01-09T12:36:44.396Z,99138.03
2023-01-09T12:39:24.397Z,99139.09
2023-01-09T12:42:06.952Z,99135.66
2023-01-09T12:44:50.444Z,99143.22
2023-01-09T12:47:45.118Z,99133.19
2023-01-09T12:50:26.376Z,99136.00
2023-01-09T12:53:06.931Z,99140.84
2023-01-09T12:55:39.729Z,99134.75
2023-01-09T12:58:14.365Z,99130.41
2023-01-09T13:00:47.836Z,99131.69
2023-01-09T13:03:21.546Z,99143.22
2023-01-09T13:05:53.622Z,99140.44
2023-01-09T13:08:27.487Z,99143.84
2023-01-09T13:11:14.849Z,99146.38
2023-01-09T13:13:51.274Z,99152.38
2023-01-09T13:16:25.900Z,99143.44
2023-01-09T13:18:59.426Z,99148.47
2023-01-09T13:21:28.479Z,99154.72
2023-01-09T13:24:03.721Z,99158.28
2023-01-09T13:26:37.134Z,99157.09
2023-01-09T13:29:14.041Z,99161.97
2023-01-09T13:32:14.824Z,99148.84
2023-01-09T13:34:47.975Z,99155.13
2023-01-09T13:37:26.311Z,99152.28
2023-01-09T13:40:02.331Z,99152.81
2023-01-09T13:42:36.557Z,99155.13
2023-01-09T13:45:24.692Z,99150.59
2023-01-09T13:48:26.602Z,99138.72
2023-01-09T13:51:35.129Z,99155.97
2023-01-09T13:54:03.625Z,99160.59
2023-01-09T13:56:31.530Z,99152.50
2023-01-09T13:59:02.972Z,99156.25
2023-01-09T14:01:44.347Z,99159.94
2023-01-09T14:04:41.776Z,99166.84
2023-01-09T14:07:32.566Z,99170.38
2023-01-09T14:10:02.666Z,99166.63
2023-01-09T14:12:34.215Z,99174.50
2023-01-09T14:15:03.510Z,99185.50
2023-01-09T14:17:34.906Z,99189.88
2023-01-09T14:20:06.036Z,99202.44
2023-01-09T14:22:45.665Z,99203.94
2023-01-09T14:25:28.214Z,99197.22
2023-01-09T14:28:20.047Z,99206.41
2023-01-09T14:31:09.862Z,99209.34
2023-01-09T14:33:39.958Z,99209.50
2023-01-09T14:36:16.359Z,99215.13
2023-01-09T14:38:51.079Z,99217.66
2023-01-09T14:41:43.889Z,99223.53
2023-01-09T14:44:26.132Z,99225.38
2023-01-09T14:46:55.518Z,99218.94
2023-01-09T14:49:34.143Z,99229.34
2023-01-09T14:52:08.768Z,99237.66
2023-01-09T14:54:41.179Z,99246.44
2023-01-09T14:57:25.268Z,99248.91
2023-01-09T15:00:00.679Z,99255.56
2023-01-09T15:02:32.191Z,99260.25
2023-01-09T15:05:05.895Z,99265.47
2023-01-09T15:07:40.558Z,99264.00
2023-01-09T15:10:17.688Z,99272.34
2023-01-09T15:12:46.544Z,99272.75
2023-01-09T15:15:16.798Z,99272.91
2023-01-09T15:17:47.323Z,99276.25
2023-01-09T15:20:19.890Z,99273.97
2023-01-09T15:22:52.763Z,99281.88
2023-01-09T15:25:33.934Z,99282.44
2023-01-09T15:28:28.930Z,99282.69
2023-01-09T15:31:02.801Z,99291.41
2023-01-09T15:33:31.302Z,99299.50
2023-01-09T15:36:02.782Z,99301.84
2023-01-09T15:38:33.321Z,99308.84
2023-01-09T15:41:09.680Z,99315.97
2023-01-09T15:43:42.149Z,99312.00
2023-01-09T15:46:12.116Z,99325.66
2023-01-09T15:48:40.055Z,99333.81
2023-01-09T15:51:11.099Z,99337.59
2023-01-09T15:53:41.538Z,99348.31
2023-01-09T15:56:19.489Z,99356.19
2023-01-09T15:58:48.311Z,99360.34
2023-01-09T16:01:29.789Z,99365.38
2023-01-09T16:04:05.010Z,99363.97
2023-01-09T16:06:36.699Z,99372.25
2023-01-09T16:09:15.726Z,99378.44
2023-01-09T16:11:49.225Z,99377.00
2023-01-09T16:14:22.863Z,99385.13
2023-01-09T16:16:53.005Z,99392.19
2023-01-09T16:19:32.228Z,99389.56
2023-01-09T16:22:01.544Z,99392.53
2023-01-09T16:24:40.655Z,99397.31
2023-01-09T16:27:23.790Z,99404.94
2023-01-09T16:29:57.568Z,99404.06
2023-01-09T16:32:28.473Z,99408.00
2023-01-09T16:34:58.010Z,99416.84
2023-01-09T16:37:27.119Z,99416.63
2023-01-09T16:40:26.347Z,99415.13
2023-01-09T16:43:03.954Z,99421.78
2023-01-09T16:45:37.347Z,99425.91
2023-01-09T16:48:13.043Z,99421.56
2023-01-09T16:50:41.124Z,99430.94
2023-01-09T16:53:15.502Z,99432.22
2023-01-09T16:55:43.466Z,99438.69
2023-01-09T16:58:17.004Z,99439.28
2023-01-09T17:00:46.061Z,99455.25
2023-01-09T17:03:15.477Z,99460.06
2023-01-09T17:05:43.760Z,99454.69
2023-01-09T17:08:24.641Z,99470.91
2023-01-09T17:10:52.820Z,99471.72
2023-01-09T17:13:22.027Z,99478.31
2023-01-09T17:15:50.143Z,99480.41
2023-01-09T17:18:19.673Z,99480.59
2023-01-09T17:20:50.884Z,99494.50
2023-01-09T17:23:20.759Z,99493.25
2023-01-09T17:26:15.649Z,99504.88
2023-01-09T17:28:48.890Z,99502.34
2023-01-09T17:31:16.599Z,99511.91
2023-01-09T17:33:44.275Z,99521.84
2023-01-09T17:36:22.680Z,99530.97
2023-01-09T17:38:54.706Z,99520.84
2023-01-09T17:41:23.425Z,99527.88
2023-01-09T17:43:53.242Z,99538.25
2023-01-09T17:46:27.193Z,99549.25
2023-01-09T17:48:54.987Z,99549.66
2023-01-09T17:51:23.041Z,99550.06
2023-01-09T17:53:51.052Z,99556.28
2023-01-09T17:56:20.804Z,99565.00
2023-01-09T17:58:48.738Z,99568.72
2023-01-09T18:01:19.465Z,99585.75
2023-01-09T18:03:48.761Z,99577.44
2023-01-09T18:06:18.380Z,99585.53
2023-01-09T18:08:45.982Z,99584.91
2023-01-09T18:11:17.454Z,99593.41
2023-01-09T18:13:45.538Z,99591.31
2023-01-09T18:16:13.987Z,99594.88
2023-01-09T18:18:44.838Z,99596.09
2023-01-09T18:21:16.550Z,99605.66
2023-01-09T18:23:44.279Z,99614.13
2023-01-09T18:26:20.000Z,99615.78
2023-01-09T18:28:49.926Z,99613.72
2023-01-09T18:31:21.976Z,99620.56
2023-01-09T18:33:52.594Z,99626.78
2023-01-09T18:36:21.563Z,99635.28
2023-01-09T18:38:53.473Z,99632.38
2023-01-09T18:41:22.575Z,99640.03
2023-01-09T18:43:50.785Z,99642.72
2023-01-09T18:46:20.558Z,99647.94
2023-01-09T18:48:53.348Z,99653.13
2023-01-09T18:51:22.051Z,99656.03
2023-01-09T18:53:50.015Z,99658.69
2023-01-09T18:56:19.120Z,99670.34
2023-01-09T18:58:46.963Z,99675.28
2023-01-09T19:01:15.229Z,99689.59
2023-01-09T19:03:43.264Z,99682.97
2023-01-09T19:06:13.608Z,99693.13
2023-01-09T19:08:41.177Z,99694.59
2023-01-09T19:11:08.953Z,99702.88
2023-01-09T19:13:37.842Z,99708.63
2023-01-09T19:16:07.142Z,99713.66
2023-01-09T19:18:35.981Z,99721.13
2023-01-09T19:21:09.265Z,99711.38
2023-01-09T19:23:38.255Z,99713.25
2023-01-09T19:26:09.160Z,99720.31
2023-01-09T19:28:38.136Z,99724.69
2023-01-09T19:31:05.991Z,99718.22
2023-01-09T19:33:33.551Z,99724.69
2023-01-09T19:36:01.175Z,99725.94
2023-01-09T19:38:28.787Z,99730.06
2023-01-09T19:41:08.896Z,99742.09
2023-01-09T19:43:36.635Z,99747.88
2023-01-09T19:46:07.965Z,99745.16
2023-01-09T19:48:35.629Z,99750.75
2023-01-09T19:51:04.411Z,99767.97
2023-01-09T19:53:32.702Z,99766.91
2023-01-09T19:56:13.312Z,99766.47
2023-01-09T19:58:41.342Z,99765.69
2023-01-09T20:01:12.231Z,99781.25
2023-01-09T20:03:41.473Z,99783.53
2023-01-09T20:06:14.851Z,99790.38
2023-01-09T20:08:42.632Z,99789.72
2023-01-09T20:11:12.361Z,99794.31
2023-01-09T20:13:40.197Z,99805.50
2023-01-09T20:16:09.080Z,99806.34
2023-01-09T20:18:36.873Z,99804.25
2023-01-09T20:21:04.698Z,99809.66
2023-01-09T20:23:33.354Z,99819.16
2023-01-09T20:26:01.473Z,99830.19
2023-01-09T20:28:30.451Z,99831.22
2023-01-09T20:30:58.176Z,99835.16
2023-01-09T20:33:26.015Z,99841.22
2023-01-09T20:35:53.605Z,99846.16
2023-01-09T20:38:21.173Z,99850.56
2023-01-09T20:40:48.782Z,99853.03
2023-01-09T20:43:16.462Z,99861.09
2023-01-09T20:45:45.530Z,99867.34
2023-01-09T20:48:14.490Z,99873.53
2023-01-09T20:50:42.542Z,99877.25
2023-01-09T20:53:10.164Z,99883.66
2023-01-09T20:55:37.746Z,99881.97
2023-01-09T20:58:05.415Z,99883.84
2023-01-09T21:00:33.047Z,99895.75
2023-01-09T21:03:02.122Z,99906.34
2023-01-09T21:05:29.829Z,99897.00
2023-01-09T21:07:57.610Z,99904.25
2023-01-09T21:10:25.262Z,99914.22
2023-01-09T21:12:52.847Z,99912.97
2023-01-09T21:15:21.384Z,99913.19
2023-01-09T21:17:49.193Z,99918.13
2023-01-09T21:20:18.683Z,99923.09
2023-01-09T21:22:46.417Z,99928.41
2023-01-09T21:25:15.751Z,99934.69
2023-01-09T21:27:45.432Z,99937.22
2023-01-09T21:30:13.676Z,99936.63
2023-01-09T21:32:41.603Z,99949.34
2023-01-09T21:35:10.265Z,99954.25
2023-01-09T21:37:39.546Z,99955.97
2023-01-09T21:40:12.161Z,99966.38
2023-01-09T21:42:57.864Z,99969.69
2023-01-09T21:45:43.186Z,99964.47
2023-01-09T21:48:11.877Z,99975.44
2023-01-09T21:50:41.019Z,99973.69
2023-01-09T21:53:10.151Z,99985.53
2023-01-09T21:55:38.097Z,99996.75
2023-01-09T21:58:05.984Z,100000.47
2023-01-09T22:00:33.800Z,100004.59
2023-01-09T22:03:01.980Z,100014.94
2023-01-09T22:05:29.845Z,100016.19
2023-01-09T22:07:57.874Z,100025.13
2023-01-09T22:10:28.203Z,100020.78
2023-01-09T22:13:16.106Z,100019.06
2023-01-09T22:15:44.853Z,100028.28
2023-01-09T22:18:12.532Z,100046.50
2023-01-09T22:20:40.177Z,100046.31
2023-01-09T22:23:07.996Z,100055.50
2023-01-09T22:25:38.747Z,100043.25
2023-01-09T22:28:09.956Z,100054.50
2023-01-09T22:30:40.375Z,100049.59
2023-01-09T22:33:10.653Z,100063.03
2023-01-09T22:35:38.716Z,100069.03
2023-01-09T22:38:06.543Z,100075.59
2023-01-09T22:40:34.267Z,100079.94
2023-01-09T22:43:03.241Z,100083.25
2023-01-09T22:45:30.997Z,100091.16
2023-01-09T22:47:58.618Z,100096.06
2023-01-09T22:50:26.518Z,100099.78
2023-01-09T22:52:54.133Z,100104.78
2023-01-09T22:55:21.700Z,100097.28
2023-01-09T22:57:49.567Z,100112.09
2023-01-09T23:00:19.321Z,100106.31
2023-01-09T23:02:48.278Z,100111.28
2023-01-09T23:05:16.251Z,100115.09
2023-01-09T23:07:43.912Z,100122.31
2023-01-09T23:10:12.219Z,100128.13
2023-01-09T23:12:39.859Z,100130.03
2023-01-09T23:15:09.965Z,100127.41
2023-01-09T23:17:38.827Z,100129.88
2023-01-09T23:20:07.316Z,100139.59
2023-01-09T23:22:34.958Z,100138.25
2023-01-09T23:25:02.661Z,100140.56
2023-01-09T23:27:30.248Z,100149.03
2023-01-09T23:29:57.870Z,100153.59
2023-01-09T23:32:25.463Z,100149.22
2023-01-09T23:34:55.326Z,100153.88
2023-01-09T23:37:22.961Z,100154.03
2023-01-09T23:39:50.678Z,100159.31
2023-01-09T23:42:44.265Z,100164.53
2023-01-09T23:45:11.921Z,100166.69
2023-01-09T23:47:39.537Z,100175.31
2023-01-09T23:50:10.874Z,100180.69
2023-01-09T23:52:38.499Z,100183.38
2023-01-09T23:55:07.232Z,100195.63
2023-01-09T23:57:34.826Z,100187.75
